Time;durP1;ratioP1;P1;durP2;ratioP2;P2;SDS_P1;SDS_P2;PMS_P1;PMS_P2;Temp;Humidity;BMP_temperature;BMP_pressure;BME280_temperature;BME280_humidity;BME280_pressure;Samples;Min_cycle;Max_cycle;Signal;HPM_P1;HPM_P2
2021/10/01 00:01:09;;;;;;;0.40;0.30;;;;;;;10.30;91.48;101968.44;5032979;28;20443;-69
2021/10/01 00:03:36;;;;;;;0.40;0.20;;;;;;;10.32;89.25;101974.41;5032704;28;20459;-68
2021/10/01 00:06:02;;;;;;;0.40;0.30;;;;;;;10.39;89.39;101973.34;5032989;28;20448;-69
2021/10/01 00:08:29;;;;;;;0.40;0.30;;;;;;;10.45;89.34;101966.88;5033041;28;20446;-69
2021/10/01 00:10:57;;;;;;;0.40;0.30;;;;;;;10.46;88.79;101969.31;5032933;28;20471;-69
2021/10/01 00:13:25;;;;;;;0.40;0.30;;;;;;;10.45;88.26;101969.59;5032854;28;20459;-69
2021/10/01 00:15:51;;;;;;;0.40;0.30;;;;;;;10.37;86.77;101967.41;5036258;28;20960;-69
2021/10/01 00:18:18;;;;;;;0.40;0.30;;;;;;;10.30;86.51;101965.72;5036555;28;20931;-69
2021/10/01 00:20:44;;;;;;;0.40;0.30;;;;;;;10.28;87.00;101962.47;5036895;28;20445;-69
2021/10/01 00:23:11;;;;;;;0.40;0.30;;;;;;;10.28;87.13;101958.97;5036325;28;20487;-69
2021/10/01 00:25:37;;;;;;;1.60;1.50;;;;;;;10.25;87.26;101956.78;5036725;28;20514;-69
2021/10/01 00:28:05;;;;;;;0.40;0.30;;;;;;;10.24;87.10;101958.66;5036664;28;20442;-69
2021/10/01 00:30:33;;;;;;;0.40;0.27;;;;;;;10.22;87.44;101954.56;5036693;28;20443;-69
2021/10/01 00:32:59;;;;;;;0.40;0.30;;;;;;;10.25;89.36;101948.66;5036523;28;20459;-69
2021/10/01 00:35:26;;;;;;;0.40;0.30;;;;;;;10.24;89.95;101947.84;5036555;28;20820;-68
2021/10/01 00:37:52;;;;;;;0.40;0.30;;;;;;;10.22;90.56;101941.00;5036482;28;20511;-68
2021/10/01 00:40:20;;;;;;;0.40;0.30;;;;;;;10.22;90.63;101947.25;5036386;28;20443;-68
2021/10/01 00:42:46;;;;;;;0.40;0.30;;;;;;;10.18;90.96;101939.91;5036200;28;20483;-69
2021/10/01 00:45:13;;;;;;;0.40;0.27;;;;;;;10.21;91.18;101942.91;5036171;28;20818;-68
2021/10/01 00:47:41;;;;;;;0.40;0.30;;;;;;;10.23;91.91;101939.97;5036321;28;20453;-69
2021/10/01 00:50:08;;;;;;;0.40;0.30;;;;;;;10.20;91.25;101937.78;5036264;28;20450;-69
2021/10/01 00:52:34;;;;;;;0.40;0.30;;;;;;;10.19;91.26;101941.56;5036134;28;20463;-69
2021/10/01 00:55:02;;;;;;;0.40;0.30;;;;;;;10.21;90.76;101932.09;5036190;28;20443;-69
2021/10/01 00:57:28;;;;;;;0.40;0.30;;;;;;;10.17;90.96;101928.28;5036185;28;20788;-69
2021/10/01 00:59:55;;;;;;;0.40;0.30;;;;;;;10.21;91.57;101932.09;5036086;28;20447;-69
2021/10/01 01:02:22;;;;;;;0.40;0.30;;;;;;;10.14;91.77;101926.13;5035889;28;20859;-68
2021/10/01 01:04:50;;;;;;;0.40;0.30;;;;;;;10.12;90.98;101925.56;5035995;28;20814;-69
2021/10/01 01:07:24;;;;;;;0.40;0.30;;;;;;;10.07;90.43;101930.94;5035373;28;20486;-71
2021/10/01 01:09:57;;;;;;;0.40;0.30;;;;;;;10.04;88.93;101918.75;5035864;28;20434;-70
2021/10/01 01:12:42;;;;;;;0.40;0.30;;;;;;;10.00;88.85;101914.13;5035817;28;20455;-70
2021/10/01 01:15:13;;;;;;;0.40;0.30;;;;;;;9.92;88.67;101911.94;5035888;28;20419;-69
2021/10/01 01:17:44;;;;;;;0.40;0.30;;;;;;;9.86;87.64;101909.19;5035773;28;20444;-69
2021/10/01 01:20:18;;;;;;;0.40;0.30;;;;;;;9.81;88.32;101920.00;5035489;28;20924;-69
2021/10/01 01:23:07;;;;;;;0.40;0.30;;;;;;;9.78;88.36;101917.84;5035411;28;20870;-68
2021/10/01 01:25:57;;;;;;;0.40;0.30;;;;;;;9.69;89.54;101913.16;5034522;28;20469;-68
2021/10/01 01:28:40;;;;;;;0.40;0.30;;;;;;;9.71;90.94;101913.72;5035305;28;20427;-68
2021/10/01 01:31:17;;;;;;;0.40;0.30;;;;;;;9.73;91.93;101909.66;5035552;28;20428;-69
2021/10/01 01:33:47;;;;;;;0.40;0.30;;;;;;;9.76;92.17;101909.16;5035236;28;20937;-69
2021/10/01 01:36:14;;;;;;;0.40;0.30;;;;;;;9.71;92.90;101909.13;5035746;28;20446;-68
2021/10/01 01:38:45;;;;;;;0.40;0.30;;;;;;;9.74;92.56;101911.31;5035355;28;20447;-69
2021/10/01 01:41:12;;;;;;;0.40;0.30;;;;;;;9.78;92.53;101911.59;5035031;28;20427;-68
2021/10/01 01:43:40;;;;;;;0.40;0.30;;;;;;;9.81;92.83;101905.66;5035181;28;20487;-69
2021/10/01 01:46:08;;;;;;;0.40;0.30;;;;;;;9.82;92.80;101905.38;5034609;28;20463;-69
2021/10/01 01:48:35;;;;;;;0.40;0.30;;;;;;;9.81;93.04;101906.47;5034934;28;20994;-68
2021/10/01 01:51:05;;;;;;;0.40;0.30;;;;;;;9.80;93.31;101902.13;5035156;28;20446;-68
2021/10/01 01:53:32;;;;;;;0.40;0.30;;;;;;;9.83;93.30;101900.81;5035023;28;20471;-68
2021/10/01 01:56:00;;;;;;;0.40;0.30;;;;;;;9.83;93.24;101904.31;5035101;28;20446;-68
2021/10/01 01:58:28;;;;;;;0.40;0.30;;;;;;;9.79;93.27;101905.94;5034992;28;20450;-69
2021/10/01 02:00:55;;;;;;;0.40;0.30;;;;;;;9.73;93.78;101909.66;5035025;28;20817;-69
2021/10/01 02:03:22;;;;;;;0.40;0.30;;;;;;;9.70;93.76;101904.78;5034848;28;20863;-68
2021/10/01 02:05:50;;;;;;;0.40;0.30;;;;;;;9.70;91.83;101904.00;5034891;28;20812;-68
2021/10/01 02:08:19;;;;;;;0.40;0.30;;;;;;;9.64;91.89;101903.13;5034232;28;20458;-68
2021/10/01 02:10:47;;;;;;;0.40;0.20;;;;;;;9.56;91.83;101904.44;5034676;28;20454;-68
2021/10/01 02:13:15;;;;;;;0.40;0.30;;;;;;;9.57;91.56;101900.66;5034344;28;20466;-68
2021/10/01 02:15:43;;;;;;;0.40;0.30;;;;;;;9.54;92.23;101897.66;5034354;28;20785;-68
2021/10/01 02:18:10;;;;;;;0.40;0.20;;;;;;;9.49;91.92;101893.03;5034316;28;20446;-69
2021/10/01 02:20:37;;;;;;;0.40;0.30;;;;;;;9.45;92.25;101891.94;5034271;28;20443;-69
2021/10/01 02:23:05;;;;;;;0.40;0.30;;;;;;;9.47;92.97;101888.94;5034019;28;20491;-68
2021/10/01 02:28:29;;;;;;;0.40;0.30;;;;;;;9.48;94.55;101887.91;5034245;28;20404;-68
2021/10/01 02:30:59;;;;;;;0.40;0.30;;;;;;;9.51;94.59;101890.06;5034450;28;20849;-68
2021/10/01 02:33:35;;;;;;;0.40;0.30;;;;;;;9.61;94.40;101890.16;5034293;28;20458;-68
2021/10/01 02:36:02;;;;;;;0.40;0.30;;;;;;;9.63;95.07;101893.38;5033636;28;20466;-69
2021/10/01 02:38:29;;;;;;;0.40;0.30;;;;;;;9.67;94.30;101885.56;5033818;28;20941;-69
2021/10/01 02:40:56;;;;;;;0.40;0.30;;;;;;;9.68;94.59;101888.00;5034190;28;20451;-69
2021/10/01 02:43:23;;;;;;;0.40;0.30;;;;;;;9.71;94.57;101882.06;5034008;28;20490;-68
2021/10/01 02:45:49;;;;;;;0.40;0.30;;;;;;;9.72;95.17;101889.09;5034096;28;20451;-68
2021/10/01 02:48:16;;;;;;;0.40;0.30;;;;;;;9.76;95.11;101882.09;5034079;28;20439;-69
2021/10/01 02:50:44;;;;;;;0.40;0.30;;;;;;;9.77;94.70;101875.59;5034033;28;20458;-68
2021/10/01 02:53:16;;;;;;;0.40;0.20;;;;;;;9.78;93.69;101871.00;5033872;28;20455;-68
2021/10/01 02:55:48;;;;;;;0.40;0.20;;;;;;;9.79;93.69;101870.75;5033990;28;20434;-69
2021/10/01 02:58:21;;;;;;;0.40;0.30;;;;;;;9.80;93.78;101866.97;5033946;28;20431;-69
2021/10/01 03:00:50;;;;;;;0.40;0.27;;;;;;;9.77;93.74;101869.38;5033887;28;20431;-69
2021/10/01 03:03:20;;;;;;;0.40;0.30;;;;;;;9.68;92.95;101862.84;5033595;28;20491;-69
2021/10/01 03:05:50;;;;;;;0.40;0.30;;;;;;;9.67;92.47;101867.44;5033374;28;20462;-68
2021/10/01 03:08:19;;;;;;;0.40;0.30;;;;;;;9.73;92.15;101862.84;5033746;28;20435;-69
2021/10/01 03:10:47;;;;;;;0.40;0.30;;;;;;;9.70;91.29;101858.81;5033670;28;20451;-69
2021/10/01 03:13:19;;;;;;;0.40;0.30;;;;;;;9.64;90.93;101859.84;5033510;28;20467;-69
2021/10/01 03:15:48;;;;;;;0.40;0.30;;;;;;;9.62;90.59;101850.38;5033407;28;20913;-69
2021/10/01 03:18:15;;;;;;;0.40;0.30;;;;;;;9.51;91.52;101852.19;5033559;28;20446;-69
2021/10/01 03:20:42;;;;;;;0.40;0.30;;;;;;;9.58;92.69;101852.78;5033546;28;20439;-69
2021/10/01 03:23:09;;;;;;;0.40;0.27;;;;;;;9.57;93.48;101851.16;5032977;28;20498;-69
2021/10/01 03:25:38;;;;;;;0.40;0.20;;;;;;;9.61;93.38;101852.28;5032797;28;20467;-69
2021/10/01 03:28:06;;;;;;;0.40;0.40;;;;;;;9.57;93.67;101851.16;5033150;28;20945;-69
2021/10/01 03:30:34;;;;;;;0.40;0.30;;;;;;;9.63;93.04;101850.09;5033112;28;20955;-69
2021/10/01 03:33:00;;;;;;;0.40;0.30;;;;;;;9.62;93.34;101853.09;5033206;28;20463;-69
2021/10/01 03:35:27;;;;;;;0.40;0.30;;;;;;;9.62;93.49;101851.19;5033395;28;20443;-69
2021/10/01 03:37:54;;;;;;;0.40;0.30;;;;;;;9.60;93.26;101845.22;5033328;28;20439;-69
2021/10/01 03:40:21;;;;;;;0.40;0.30;;;;;;;9.58;92.98;101844.66;5032993;28;20820;-69
2021/10/01 03:42:47;;;;;;;0.40;0.30;;;;;;;9.58;92.82;101841.97;5033181;28;20523;-68
2021/10/01 03:45:14;;;;;;;0.40;0.30;;;;;;;9.55;92.93;101835.19;5033242;28;20453;-69
2021/10/01 03:47:42;;;;;;;0.40;0.30;;;;;;;9.59;92.64;101843.59;5033243;28;20440;-69
2021/10/01 03:50:09;;;;;;;0.40;0.23;;;;;;;9.60;92.01;101850.63;5032311;28;20443;-69
2021/10/01 03:52:36;;;;;;;0.70;0.70;;;;;;;9.57;92.30;101845.75;5032862;28;20992;-68
2021/10/01 03:55:05;;;;;;;0.40;0.30;;;;;;;9.59;92.11;101854.41;5032817;28;20994;-68
2021/10/01 03:57:31;;;;;;;0.40;0.30;;;;;;;9.55;91.96;101843.28;5033169;28;20530;-68
2021/10/01 03:59:58;;;;;;;0.40;0.30;;;;;;;9.51;90.67;101839.47;5032783;28;20956;-69
2021/10/01 04:02:24;;;;;;;0.40;0.30;;;;;;;9.44;90.22;101838.13;5032982;28;20470;-69
2021/10/01 04:04:52;;;;;;;0.40;0.30;;;;;;;9.35;89.33;101838.59;5033062;28;20443;-68
2021/10/01 04:07:19;;;;;;;0.40;0.30;;;;;;;9.29;89.85;101834.22;5033298;28;20443;-68
2021/10/01 04:09:45;;;;;;;0.40;0.30;;;;;;;9.34;90.68;101833.44;5032865;28;20450;-68
2021/10/01 04:12:12;;;;;;;0.40;0.30;;;;;;;9.38;90.42;101831.03;5032628;28;20470;-68
2021/10/01 04:14:38;;;;;;;0.40;0.30;;;;;;;9.35;91.08;101829.69;5032650;28;20952;-69
2021/10/01 04:17:05;;;;;;;0.40;0.30;;;;;;;9.33;92.57;101829.13;5032945;28;20446;-68
2021/10/01 04:19:31;;;;;;;0.40;0.30;;;;;;;9.40;93.08;101834.31;5032668;28;20450;-68
2021/10/01 04:21:59;;;;;;;0.40;0.30;;;;;;;9.39;93.05;101833.50;5032497;28;20874;-68
2021/10/01 04:24:25;;;;;;;0.40;0.30;;;;;;;9.38;93.24;101828.31;5032929;28;20482;-68
2021/10/01 04:26:52;;;;;;;0.40;0.30;;;;;;;9.39;93.68;101830.78;5032926;28;20450;-68
2021/10/01 04:29:18;;;;;;;0.40;0.30;;;;;;;9.47;94.09;101826.75;5032853;28;20458;-68
2021/10/01 04:31:45;;;;;;;0.40;0.30;;;;;;;9.48;92.94;101825.69;5032790;28;20467;-69
2021/10/01 04:34:11;;;;;;;0.40;0.20;;;;;;;9.48;92.46;101826.50;5032461;28;20997;-69
2021/10/01 04:36:38;;;;;;;0.40;0.30;;;;;;;9.46;92.88;101814.31;5032831;28;20439;-69
2021/10/01 04:39:05;;;;;;;0.40;0.30;;;;;;;9.41;93.29;101814.28;5032807;28;20439;-69
2021/10/01 04:41:33;;;;;;;0.40;0.30;;;;;;;9.41;92.78;101808.88;5032699;28;20537;-68
2021/10/01 04:44:00;;;;;;;0.40;0.30;;;;;;;9.41;92.83;101803.47;5032274;28;21043;-70
2021/10/01 04:46:27;;;;;;;0.40;0.30;;;;;;;9.45;92.62;101796.47;5032665;28;20439;-69
2021/10/01 04:48:55;;;;;;;0.40;0.30;;;;;;;9.49;92.12;101789.44;5032334;28;20932;-69
2021/10/01 04:51:21;;;;;;;0.40;0.30;;;;;;;9.47;90.91;101799.69;5032583;28;20793;-70
2021/10/01 04:53:48;;;;;;;0.40;0.30;;;;;;;9.44;90.00;101786.72;5032578;28;20443;-69
2021/10/01 04:56:16;;;;;;;0.40;0.20;;;;;;;9.43;90.33;101798.59;5032572;28;20451;-69
2021/10/01 04:58:42;;;;;;;0.40;0.20;;;;;;;9.38;89.42;101796.69;5032508;28;20443;-69
2021/10/01 05:01:09;;;;;;;0.40;0.30;;;;;;;9.37;89.18;101792.38;5033241;28;20455;-69
2021/10/01 05:03:38;;;;;;;0.40;0.30;;;;;;;9.39;89.88;101797.53;5037083;28;20493;-69
2021/10/01 05:06:05;;;;;;;0.40;0.30;;;;;;;9.34;88.87;101799.13;5035721;28;20972;-70
2021/10/01 05:08:31;;;;;;;0.40;0.30;;;;;;;9.25;89.08;101806.09;5035941;28;20446;-69
2021/10/01 05:10:58;;;;;;;0.40;0.30;;;;;;;9.22;90.26;101803.91;5035932;28;20443;-70
2021/10/01 05:13:25;;;;;;;0.40;0.30;;;;;;;9.28;90.72;101805.56;5035810;28;20459;-70
2021/10/01 05:15:52;;;;;;;0.40;0.30;;;;;;;9.30;91.67;101802.63;5035855;28;20442;-70
2021/10/01 05:18:19;;;;;;;0.90;0.90;;;;;;;9.34;92.19;101804.53;5035773;28;20453;-68
2021/10/01 05:20:46;;;;;;;0.40;0.30;;;;;;;9.39;92.36;101813.75;5035771;28;20443;-69
2021/10/01 05:23:12;;;;;;;0.40;0.30;;;;;;;9.47;92.06;101813.22;5035193;28;20486;-69
2021/10/01 05:25:39;;;;;;;0.40;0.30;;;;;;;9.45;91.81;101799.97;5035653;28;20470;-70
2021/10/01 05:28:06;;;;;;;0.40;0.30;;;;;;;9.49;91.52;101800.28;5035602;28;20826;-70
2021/10/01 05:30:34;;;;;;;0.40;0.30;;;;;;;9.53;91.87;101799.47;5035262;28;20945;-70
2021/10/01 05:33:05;;;;;;;0.40;0.30;;;;;;;9.55;91.78;101810.84;5035140;28;20463;-69
2021/10/01 05:35:33;;;;;;;0.40;0.30;;;;;;;9.62;91.41;101810.59;5035520;28;20478;-70
2021/10/01 05:37:59;;;;;;;0.40;0.30;;;;;;;9.64;90.83;101802.22;5035397;28;20450;-73
2021/10/01 05:40:26;;;;;;;0.40;0.30;;;;;;;9.70;89.83;101802.00;5035375;28;20447;-69
2021/10/01 05:42:52;;;;;;;0.40;0.30;;;;;;;9.72;89.32;101805.22;5035084;28;20466;-69
2021/10/01 05:45:19;;;;;;;0.40;0.30;;;;;;;9.77;89.87;101810.66;5035027;28;20450;-70
2021/10/01 05:47:46;;;;;;;0.40;0.30;;;;;;;9.78;89.86;101806.88;5034687;28;20818;-70
2021/10/01 05:50:15;;;;;;;0.40;0.30;;;;;;;9.82;89.78;101815.28;5034896;28;20458;-70
2021/10/01 05:52:53;;;;;;;0.40;0.30;;;;;;;9.86;88.76;101813.66;5034772;28;20474;-70
2021/10/01 05:55:19;;;;;;;0.40;0.30;;;;;;;9.87;86.95;101815.28;5035054;28;20439;-68
2021/10/01 05:57:46;;;;;;;0.40;0.20;;;;;;;9.95;87.20;101819.38;5035075;28;20443;-70
2021/10/01 06:00:13;;;;;;;0.40;0.30;;;;;;;9.94;86.62;101815.03;5034976;28;20446;-69
2021/10/01 06:02:41;;;;;;;0.40;0.30;;;;;;;9.96;86.69;101821.00;5034612;28;20817;-70
2021/10/01 06:05:09;;;;;;;0.40;0.30;;;;;;;10.02;86.42;101817.25;5034491;28;20999;-69
2021/10/01 06:07:36;;;;;;;0.40;0.30;;;;;;;10.10;86.79;101809.41;5034919;28;20449;-68
2021/10/01 06:10:03;;;;;;;0.40;0.27;;;;;;;10.14;86.49;101804.28;5034791;28;20439;-69
2021/10/01 06:12:30;;;;;;;0.40;0.30;;;;;;;10.23;87.33;101809.97;5033938;28;20972;-70
2021/10/01 06:14:56;;;;;;;0.40;0.30;;;;;;;10.30;87.55;101810.56;5034723;28;20450;-69
2021/10/01 06:17:22;;;;;;;0.40;0.30;;;;;;;10.38;85.75;101803.78;5034618;28;20453;-69
2021/10/01 06:19:49;;;;;;;0.40;0.30;;;;;;;10.44;85.05;101802.72;5034539;28;20449;-68
2021/10/01 06:22:17;;;;;;;0.40;0.20;;;;;;;10.52;86.55;101799.47;5033571;28;20495;-69
2021/10/01 06:24:44;;;;;;;0.40;0.30;;;;;;;10.58;86.52;101792.94;5034050;28;20858;-68
2021/10/01 06:27:11;;;;;;;1.17;1.07;;;;;;;10.61;83.88;101797.84;5034496;28;20815;-68
2021/10/01 06:29:38;;;;;;;0.40;0.27;;;;;;;10.64;83.94;101791.88;5034393;28;20469;-68
2021/10/01 06:32:05;;;;;;;3.33;3.03;;;;;;;10.68;84.31;101801.09;5034090;28;20474;-68
2021/10/01 06:34:32;;;;;;;0.40;0.30;;;;;;;10.71;83.64;101799.72;5034397;28;20908;-68
2021/10/01 06:36:58;;;;;;;0.40;0.30;;;;;;;10.75;83.45;101801.63;5034030;28;20443;-69
2021/10/01 06:39:26;;;;;;;0.40;0.30;;;;;;;10.83;82.64;101800.28;5034277;28;20443;-68
2021/10/01 06:41:52;;;;;;;0.40;0.30;;;;;;;10.86;81.90;101797.84;5034140;28;20474;-68
2021/10/01 06:44:23;;;;;;;0.40;0.30;;;;;;;10.90;80.97;101797.28;5034069;28;20479;-68
2021/10/01 06:46:52;;;;;;;0.40;0.30;;;;;;;10.84;81.68;101797.28;5034145;28;20804;-68
2021/10/01 06:49:38;;;;;;;0.40;0.30;;;;;;;10.90;81.17;101800.00;5033700;28;20987;-68
2021/10/01 06:52:27;;;;;;;0.40;0.30;;;;;;;10.93;81.84;101796.72;5033982;28;20471;-68
2021/10/01 07:39:18;;;;;;;0.40;0.30;;;;;;;11.59;77.12;101797.34;5033222;28;20457;-68
2021/10/01 08:20:15;;;;;;;0.40;0.30;;;;;;;12.97;71.89;101793.72;5032684;28;21000;-68
2021/10/01 08:22:41;;;;;;;0.40;0.20;;;;;;;13.03;70.73;101795.28;5032416;28;20475;-68
2021/10/01 08:25:09;;;;;;;0.40;0.30;;;;;;;13.09;72.29;101793.31;5032458;28;20479;-68
2021/10/01 08:27:36;;;;;;;0.40;0.30;;;;;;;13.10;71.96;101789.50;5032619;28;20453;-68
2021/10/01 08:30:04;;;;;;;0.40;0.27;;;;;;;13.17;71.12;101791.88;5032725;28;20497;-69
2021/10/01 08:32:32;;;;;;;0.40;0.30;;;;;;;13.24;72.50;101801.38;5032454;28;20967;-68
2021/10/01 08:34:59;;;;;;;0.40;0.30;;;;;;;13.32;71.08;101797.19;5033271;28;20443;-69
2021/10/01 08:37:25;;;;;;;0.40;0.30;;;;;;;13.42;71.56;101785.38;5036256;28;20454;-68
2021/10/01 08:39:52;;;;;;;0.40;0.30;;;;;;;13.50;71.80;101779.28;5036441;28;20439;-68
2021/10/01 08:42:18;;;;;;;0.40;0.30;;;;;;;13.58;69.13;101789.53;5036482;28;20470;-69
2021/10/01 08:44:46;;;;;;;0.40;0.27;;;;;;;13.68;68.94;101783.97;5036236;28;20542;-68
2021/10/01 08:47:12;;;;;;;0.40;0.30;;;;;;;13.77;69.91;101787.66;5036393;28;20443;-68
2021/10/01 08:49:41;;;;;;;0.40;0.20;;;;;;;13.84;68.61;101777.19;5036366;28;20514;-69
2021/10/01 08:52:09;;;;;;;0.40;0.27;;;;;;;13.97;69.88;101780.31;5036225;28;20517;-70
2021/10/01 08:54:36;;;;;;;0.40;0.20;;;;;;;14.05;68.98;101776.91;5036005;28;20439;-69
2021/10/01 08:57:03;;;;;;;0.40;0.20;;;;;;;14.17;70.06;101779.22;5035613;28;20463;-69
2021/10/01 08:59:29;;;;;;;0.40;0.30;;;;;;;14.26;69.34;101778.25;5036183;28;20447;-68
2021/10/01 09:01:56;;;;;;;0.40;0.20;;;;;;;14.38;69.68;101769.59;5035686;28;20999;-68
2021/10/01 09:04:22;;;;;;;0.40;0.20;;;;;;;14.43;69.11;101768.69;5036015;28;20482;-69
2021/10/01 09:06:52;;;;;;;0.40;0.20;;;;;;;14.52;67.44;101772.38;5035117;28;20949;-68
2021/10/01 09:09:18;;;;;;;0.40;0.20;;;;;;;14.56;65.74;101757.84;5035427;28;20463;-68
2021/10/01 09:11:46;;;;;;;0.40;0.20;;;;;;;14.61;68.26;101762.44;5035154;28;20478;-68
2021/10/01 09:14:15;;;;;;;0.40;0.30;;;;;;;14.67;66.88;101749.50;5035920;28;20439;-68
2021/10/01 09:16:43;;;;;;;0.40;0.20;;;;;;;14.67;67.15;101755.78;5035895;28;20454;-68
2021/10/01 09:19:11;;;;;;;0.40;0.30;;;;;;;14.65;66.68;101755.25;5035501;28;20878;-68
2021/10/01 09:21:42;;;;;;;0.40;0.30;;;;;;;14.63;66.66;101744.66;5035520;28;20479;-68
2021/10/01 09:24:13;;;;;;;0.40;0.30;;;;;;;14.70;66.07;101747.00;5035756;28;20517;-68
2021/10/01 09:26:49;;;;;;;0.40;0.30;;;;;;;14.77;65.96;101741.94;5035731;28;20439;-68
2021/10/01 09:29:25;;;;;;;0.40;0.20;;;;;;;14.82;68.06;101739.13;5035709;28;20800;-68
2021/10/01 09:31:52;;;;;;;0.40;0.30;;;;;;;14.94;66.68;101732.38;5035670;28;20548;-68
2021/10/01 09:34:34;;;;;;;0.40;0.20;;;;;;;15.03;64.80;101725.91;5035530;28;20435;-68
2021/10/01 09:37:02;;;;;;;0.40;0.30;;;;;;;15.12;64.94;101717.81;5035592;28;20435;-68
2021/10/01 09:39:33;;;;;;;0.40;0.23;;;;;;;15.21;66.37;101723.38;5035524;28;20809;-68
2021/10/01 09:42:10;;;;;;;0.40;0.20;;;;;;;15.30;64.83;101719.63;5035364;28;20498;-68
2021/10/01 09:44:43;;;;;;;0.40;0.20;;;;;;;15.40;64.31;101721.31;5035346;28;20479;-68
2021/10/01 09:47:10;;;;;;;0.40;0.30;;;;;;;15.45;66.07;101714.94;5033590;28;20809;-68
2021/10/01 09:49:36;;;;;;;0.40;0.20;;;;;;;15.51;63.95;101720.00;5035253;28;20446;-68
2021/10/01 09:52:04;;;;;;;0.40;0.20;;;;;;;15.55;62.61;101712.81;5035141;28;20463;-68
2021/10/01 09:54:32;;;;;;;0.40;0.20;;;;;;;15.63;63.04;101706.63;5035127;28;20492;-68
2021/10/01 09:57:03;;;;;;;0.40;0.30;;;;;;;15.73;64.91;101710.28;5034982;28;20442;-68
2021/10/01 09:59:31;;;;;;;0.40;0.30;;;;;;;15.84;63.45;101717.13;5035054;28;20428;-68
2021/10/01 10:02:10;;;;;;;0.40;0.30;;;;;;;15.94;62.08;101713.34;5034726;28;20463;-68
2021/10/01 10:04:41;;;;;;;0.40;0.20;;;;;;;15.99;61.09;101696.84;5034966;28;20497;-68
2021/10/01 10:07:15;;;;;;;0.40;0.20;;;;;;;16.12;63.19;101706.91;5035229;28;20432;-69
2021/10/01 10:09:46;;;;;;;0.40;0.30;;;;;;;16.24;61.95;101706.31;5035009;28;20783;-69
2021/10/01 10:12:17;;;;;;;0.40;0.30;;;;;;;16.32;60.50;101695.44;5034900;28;20459;-68
2021/10/01 10:14:49;;;;;;;0.40;0.30;;;;;;;16.43;60.93;101704.22;5035155;28;20431;-68
2021/10/01 10:17:17;;;;;;;0.40;0.20;;;;;;;16.49;62.56;101692.00;5034773;28;20434;-68
2021/10/01 10:19:44;;;;;;;0.40;0.30;;;;;;;16.55;59.52;101693.47;5034579;28;20439;-68
2021/10/01 10:22:11;;;;;;;0.40;0.23;;;;;;;16.63;59.37;101691.91;5034084;28;20487;-68
2021/10/01 10:24:38;;;;;;;0.40;0.30;;;;;;;16.77;58.59;101700.84;5034566;28;20482;-68
2021/10/01 10:27:06;;;;;;;0.40;0.20;;;;;;;16.80;58.18;101692.03;5034524;28;20446;-68
2021/10/01 10:29:33;;;;;;;0.40;0.30;;;;;;;16.92;58.55;101687.88;5034517;28;20455;-68
2021/10/01 10:32:01;;;;;;;0.40;0.27;;;;;;;17.03;57.12;101690.00;5034380;28;20470;-69
2021/10/01 10:34:29;;;;;;;0.40;0.20;;;;;;;17.12;59.78;101684.56;5034451;28;20450;-68
2021/10/01 10:37:05;;;;;;;0.40;0.20;;;;;;;17.18;57.40;101688.78;5034365;28;20439;-69
2021/10/01 10:39:40;;;;;;;0.40;0.30;;;;;;;17.33;56.07;101685.56;5033990;28;20959;-67
2021/10/01 10:42:12;;;;;;;0.40;0.30;;;;;;;17.47;57.45;101685.44;5034224;28;20462;-67
2021/10/01 10:44:50;;;;;;;0.80;0.80;;;;;;;17.63;55.49;101685.78;5034113;28;20474;-67
2021/10/01 10:47:51;;;;;;;0.40;0.30;;;;;;;17.66;55.93;101682.38;5033854;28;20416;-68
2021/10/01 10:50:44;;;;;;;0.40;0.23;;;;;;;17.60;53.33;101683.66;5034046;28;20443;-69
2021/10/01 10:53:28;;;;;;;0.40;0.27;;;;;;;17.70;54.80;101671.56;5034030;28;20517;-71
2021/10/01 10:56:05;;;;;;;0.40;0.20;;;;;;;17.83;56.33;101671.44;5034031;28;20514;-69
2021/10/01 10:58:49;;;;;;;0.40;0.30;;;;;;;18.08;55.05;101667.06;5033545;28;20804;-69
2021/10/01 11:01:37;;;;;;;0.83;0.83;;;;;;;18.22;53.93;101666.06;5033645;28;20451;-69
2021/10/01 11:04:27;;;;;;;0.40;0.30;;;;;;;18.41;53.96;101661.00;5035219;28;20428;-69
2021/10/01 11:06:54;;;;;;;0.40;0.30;;;;;;;18.80;53.46;101661.88;5033820;28;20466;-70
2021/10/01 11:09:29;;;;;;;0.40;0.20;;;;;;;19.12;50.95;101657.63;5033195;28;20474;-70
2021/10/01 11:11:58;;;;;;;0.40;0.20;;;;;;;19.25;51.71;101655.78;5032706;28;20979;-70
2021/10/01 11:14:28;;;;;;;0.40;0.20;;;;;;;19.34;49.09;101657.34;5033023;28;20800;-70
2021/10/01 11:17:20;;;;;;;0.40;0.30;;;;;;;19.42;50.44;101650.97;5033026;28;20435;-69
2021/10/01 11:19:54;;;;;;;0.40;0.20;;;;;;;19.74;50.44;101643.13;5032751;28;20446;-70
2021/10/01 11:22:29;;;;;;;0.40;0.20;;;;;;;20.00;49.00;101639.34;5032629;28;20559;-70
2021/10/01 11:24:57;;;;;;;0.40;0.20;;;;;;;20.42;48.03;101651.03;5032807;28;20526;-71
2021/10/01 11:27:24;;;;;;;0.40;0.20;;;;;;;20.81;47.48;101649.59;5032647;28;20820;-71
2021/10/01 11:29:52;;;;;;;0.40;0.30;;;;;;;21.33;46.71;101646.09;5032920;28;20550;-70
2021/10/01 11:32:22;;;;;;;0.40;0.20;;;;;;;21.87;46.66;101645.72;5032676;28;20463;-70
2021/10/01 11:34:50;;;;;;;0.40;0.30;;;;;;;21.92;44.57;101634.41;5032475;28;20941;-70
2021/10/01 11:37:21;;;;;;;0.40;0.30;;;;;;;21.49;44.93;101637.13;5032379;28;20443;-70
2021/10/01 11:39:48;;;;;;;0.40;0.27;;;;;;;21.13;47.57;101642.34;5032632;28;20454;-70
2021/10/01 11:42:21;;;;;;;0.40;0.30;;;;;;;20.49;46.63;101623.75;5032537;28;20463;-69
2021/10/01 11:44:48;;;;;;;0.40;0.30;;;;;;;21.01;47.59;101625.03;5032371;28;20969;-69
2021/10/01 11:47:16;;;;;;;0.40;0.30;;;;;;;22.10;45.20;101623.06;5032562;28;20443;-69
2021/10/01 11:49:42;;;;;;;0.40;0.30;;;;;;;22.97;43.98;101626.81;5032611;28;20450;-69
2021/10/01 11:52:12;;;;;;;0.40;0.30;;;;;;;23.28;41.75;101620.38;5032541;28;20487;-69
2021/10/01 11:54:49;;;;;;;0.40;0.30;;;;;;;23.73;42.68;101614.25;5032273;28;20822;-69
2021/10/01 11:57:16;;;;;;;0.40;0.30;;;;;;;24.22;42.28;101610.78;5032599;28;20427;-69
2021/10/01 11:59:54;;;;;;;0.40;0.30;;;;;;;24.51;39.47;101605.75;5032252;28;20450;-69
2021/10/01 12:02:33;;;;;;;0.40;0.30;;;;;;;24.89;40.56;101599.19;5032367;28;20470;-69
2021/10/01 12:05:18;;;;;;;0.40;0.30;;;;;;;25.23;36.90;101599.28;5032127;28;20466;-70
2021/10/01 12:07:46;;;;;;;0.40;0.30;;;;;;;25.20;38.37;101600.84;5032479;28;20431;-70
2021/10/01 12:10:13;;;;;;;0.40;0.30;;;;;;;24.69;39.36;101595.72;5032944;28;21006;-69
2021/10/01 12:13:18;;;;;;;0.40;0.30;;;;;;;25.03;38.43;101593.06;5036202;28;20466;-70
2021/10/01 12:15:49;;;;;;;0.40;0.30;;;;;;;25.52;37.07;101589.34;5020890;28;20450;-70
2021/10/01 12:18:36;;;;;;;0.40;0.30;;;;;;;25.08;36.86;101592.75;5036242;28;20439;-70
2021/10/01 12:21:04;;;;;;;0.40;0.30;;;;;;;24.88;38.07;101576.22;5036300;28;20431;-70
2021/10/01 12:23:35;;;;;;;0.40;0.30;;;;;;;25.36;37.29;101579.22;5035722;28;20563;-70
2021/10/01 12:26:24;;;;;;;0.40;0.30;;;;;;;25.34;36.83;101576.06;5036085;28;20463;-70
2021/10/01 12:28:59;;;;;;;0.40;0.30;;;;;;;25.26;35.83;101573.56;5036202;28;20537;-70
2021/10/01 12:31:29;;;;;;;0.40;0.30;;;;;;;25.12;37.16;101569.44;5036084;28;20427;-71
2021/10/01 12:33:58;;;;;;;0.40;0.30;;;;;;;24.70;37.02;101552.97;5035676;28;20802;-71
2021/10/01 12:36:26;;;;;;;0.40;0.30;;;;;;;24.86;38.96;101542.53;5035692;28;20443;-73
2021/10/01 12:38:55;;;;;;;0.40;0.30;;;;;;;24.58;37.15;101547.69;5035820;28;20450;-70
2021/10/01 12:41:22;;;;;;;0.40;0.30;;;;;;;24.74;37.77;101542.75;5035866;28;20439;-69
2021/10/01 12:43:51;;;;;;;0.40;0.30;;;;;;;24.66;37.01;101543.84;5035550;28;20441;-70
2021/10/01 12:46:38;;;;;;;0.40;0.30;;;;;;;24.90;37.50;101537.84;5035638;28;20829;-69
2021/10/01 12:49:24;;;;;;;0.40;0.30;;;;;;;24.88;38.14;101528.28;5035469;28;20427;-69
2021/10/01 12:52:07;;;;;;;0.40;0.30;;;;;;;25.12;37.27;101521.50;5035825;28;20471;-70
2021/10/01 12:54:35;;;;;;;0.40;0.30;;;;;;;25.38;35.50;101526.16;5035651;28;20438;-69
2021/10/01 12:57:19;;;;;;;0.40;0.30;;;;;;;25.73;35.30;101511.84;5035570;28;20450;-70
2021/10/01 12:59:49;;;;;;;0.40;0.30;;;;;;;26.03;35.93;101509.00;5035797;28;20431;-70
2021/10/01 13:02:20;;;;;;;0.40;0.30;;;;;;;26.21;35.98;101508.31;5035480;28;20863;-70
2021/10/01 13:04:55;;;;;;;0.40;0.23;;;;;;;26.39;36.08;101514.81;5035455;28;20802;-70
2021/10/01 13:07:32;;;;;;;0.40;0.30;;;;;;;26.63;34.65;101507.81;5035492;28;20437;-70